Time;durP1;ratioP1;P1;durP2;ratioP2;P2;SDS_P1;SDS_P2;PMS_P1;PMS_P2;Temp;Humidity;BMP_temperature;BMP_pressure;BME280_temperature;BME280_humidity;BME280_pressure;Samples;Min_cycle;Max_cycle;Signal;HPM_P1;HPM_P2
2023/08/14 00:01:18;;;;;;;8.18;3.72;;;16.10;99.90;;;;;;4997562;28;90216;-34
2023/08/14 00:03:44;;;;;;;4.97;4.03;;;16.10;99.90;;;;;;4996991;28;89698;-35
2023/08/14 00:06:10;;;;;;;4.78;3.85;;;16.10;99.90;;;;;;4996882;28;87871;-35
2023/08/14 00:08:36;;;;;;;7.55;3.78;;;16.10;99.90;;;;;;4999183;28;89207;-34
2023/08/14 00:11:01;;;;;;;10.00;4.53;;;16.10;99.90;;;;;;4995854;28;89415;-31
2023/08/14 00:13:27;;;;;;;6.22;3.85;;;16.00;99.90;;;;;;4998515;28;89542;-33
2023/08/14 00:15:53;;;;;;;3.80;3.50;;;16.00;99.90;;;;;;4996427;28;90327;-33
2023/08/14 00:18:18;;;;;;;4.75;3.60;;;16.00;99.90;;;;;;4999336;28;89927;-32
2023/08/14 00:20:45;;;;;;;4.40;4.00;;;16.00;99.90;;;;;;4997147;28;90431;-32
2023/08/14 00:23:10;;;;;;;11.15;4.25;;;15.90;99.90;;;;;;4998884;28;89172;-36
2023/08/14 00:25:36;;;;;;;6.78;3.95;;;15.90;99.90;;;;;;4996454;28;89038;-35
2023/08/14 00:28:02;;;;;;;6.40;4.40;;;15.90;99.90;;;;;;4998298;28;89754;-34
2023/08/14 00:30:27;;;;;;;4.53;4.10;;;15.90;99.90;;;;;;4996849;28;89496;-31
2023/08/14 00:32:53;;;;;;;4.78;4.28;;;15.90;99.90;;;;;;5006360;28;90155;-32
2023/08/14 00:35:19;;;;;;;9.93;4.70;;;15.90;99.90;;;;;;4999095;28;89468;-31
2023/08/14 00:37:46;;;;;;;4.72;3.50;;;15.90;99.90;;;;;;4997563;28;90183;-34
2023/08/14 00:40:13;;;;;;;8.82;4.47;;;15.90;99.90;;;;;;4994830;28;89318;-32
2023/08/14 00:42:42;;;;;;;6.10;5.17;;;15.90;99.90;;;;;;4990192;28;89449;-32
2023/08/14 00:45:09;;;;;;;4.80;4.38;;;15.90;99.90;;;;;;4981457;28;89645;-34
2023/08/14 00:47:36;;;;;;;6.00;4.60;;;15.80;99.90;;;;;;4990681;28;89251;-35
2023/08/14 00:50:06;;;;;;;12.23;6.53;;;15.80;99.90;;;;;;4998478;28;89469;-32
2023/08/14 00:52:37;;;;;;;8.85;5.97;;;15.80;99.90;;;;;;4998899;28;89544;-33
2023/08/14 00:55:07;;;;;;;10.07;6.80;;;15.80;99.90;;;;;;4993242;28;89821;-33
2023/08/14 00:57:34;;;;;;;10.88;9.00;;;15.70;99.90;;;;;;4992860;28;90514;-38
2023/08/14 01:00:01;;;;;;;12.10;9.80;;;15.70;99.90;;;;;;4986158;28;90408;-35
2023/08/14 01:02:27;;;;;;;11.45;9.35;;;15.70;99.90;;;;;;4997792;28;89155;-34
2023/08/14 01:04:53;;;;;;;15.15;10.68;;;15.80;99.90;;;;;;4979478;28;89071;-32
2023/08/14 01:07:19;;;;;;;14.52;10.02;;;15.80;99.90;;;;;;4991137;28;90702;-33
2023/08/14 01:09:46;;;;;;;12.20;9.90;;;15.80;99.90;;;;;;4998220;28;90230;-35
2023/08/14 01:12:30;;;;;;;15.95;9.45;;;15.70;99.90;;;;;;4985170;28;89296;-36
2023/08/14 01:15:03;;;;;;;10.68;8.85;;;15.70;99.90;;;;;;4978867;28;89865;-35
2023/08/14 01:17:33;;;;;;;13.68;9.70;;;15.70;99.90;;;;;;4979090;28;89579;-31
2023/08/14 01:20:00;;;;;;;9.60;8.13;;;15.70;99.90;;;;;;4978693;28;90233;-31
2023/08/14 01:22:25;;;;;;;14.82;8.82;;;15.60;99.90;;;;;;4984633;28;90645;-32
2023/08/14 01:25:10;;;;;;;11.05;8.15;;;15.60;99.90;;;;;;4999400;28;88338;-38
2023/08/14 01:27:36;;;;;;;8.52;7.63;;;15.60;99.90;;;;;;4986677;28;90322;-35
2023/08/14 01:30:02;;;;;;;10.80;8.38;;;15.60;99.90;;;;;;4997728;28;89717;-37
2023/08/14 01:32:27;;;;;;;10.35;8.20;;;15.60;99.90;;;;;;4998344;28;89939;-32
2023/08/14 01:34:54;;;;;;;9.95;7.10;;;15.60;99.90;;;;;;4997568;28;89046;-36
2023/08/14 01:37:48;;;;;;;9.93;7.57;;;15.60;99.90;;;;;;4998361;28;89885;-35
2023/08/14 01:40:20;;;;;;;8.85;6.60;;;15.60;99.90;;;;;;4984547;28;89361;-33
2023/08/14 01:42:51;;;;;;;9.13;6.95;;;15.60;99.90;;;;;;4992636;28;89648;-37
2023/08/14 01:45:21;;;;;;;9.63;7.10;;;15.50;99.90;;;;;;4992658;28;88771;-32
2023/08/14 01:47:50;;;;;;;12.68;6.50;;;15.50;99.90;;;;;;4982034;28;90286;-33
2023/08/14 01:50:17;;;;;;;7.82;7.00;;;15.50;99.90;;;;;;4980372;28;89988;-38
2023/08/14 01:52:43;;;;;;;7.13;6.43;;;15.50;99.90;;;;;;4983148;28;89661;-34
2023/08/14 01:55:09;;;;;;;7.40;6.70;;;15.50;99.90;;;;;;4980237;28;88996;-34
2023/08/14 01:57:35;;;;;;;7.70;6.90;;;15.50;99.90;;;;;;4983026;28;89897;-32
2023/08/14 02:00:01;;;;;;;8.95;6.25;;;15.40;99.90;;;;;;4980790;28;91296;-35
2023/08/14 02:02:26;;;;;;;6.95;6.10;;;15.40;99.90;;;;;;4993759;28;90072;-33
2023/08/14 02:04:52;;;;;;;8.88;6.93;;;15.40;99.90;;;;;;4999272;28;87666;-35
2023/08/14 02:07:18;;;;;;;9.98;6.30;;;15.30;99.90;;;;;;4996735;28;90074;-35
2023/08/14 02:09:43;;;;;;;7.25;6.15;;;15.30;99.90;;;;;;4998228;28;89727;-32
2023/08/14 02:12:09;;;;;;;8.02;6.15;;;15.30;99.90;;;;;;4997223;28;90385;-35
2023/08/14 02:14:34;;;;;;;10.98;7.07;;;15.30;99.90;;;;;;4998499;28;89537;-34
2023/08/14 02:17:00;;;;;;;7.82;6.40;;;15.30;99.90;;;;;;4997978;28;90706;-31
2023/08/14 02:19:26;;;;;;;9.25;6.97;;;15.30;99.90;;;;;;4996753;28;92049;-32
2023/08/14 02:21:51;;;;;;;7.53;6.53;;;15.20;99.90;;;;;;4997276;28;89641;-34
2023/08/14 02:24:17;;;;;;;9.85;6.47;;;15.20;99.90;;;;;;4996777;28;88397;-33
2023/08/14 02:26:43;;;;;;;7.22;6.47;;;15.20;99.90;;;;;;4980812;28;91756;-31
2023/08/14 02:29:08;;;;;;;9.15;8.27;;;15.20;99.90;;;;;;4978239;28;89059;-32
2023/08/14 02:31:34;;;;;;;9.57;7.88;;;15.20;99.90;;;;;;4980452;28;88653;-32
2023/08/14 02:34:01;;;;;;;9.45;7.53;;;15.20;99.90;;;;;;4992911;28;89178;-30
2023/08/14 02:36:27;;;;;;;8.88;8.02;;;15.20;99.90;;;;;;4965707;28;89815;-35
2023/08/14 02:38:54;;;;;;;8.20;7.22;;;15.20;99.90;;;;;;5000284;28;89690;-35
2023/08/14 02:41:20;;;;;;;9.02;7.70;;;15.20;99.90;;;;;;5001754;28;89118;-33
2023/08/14 02:43:46;;;;;;;10.40;8.32;;;15.20;99.90;;;;;;4999474;28;88245;-37
2023/08/14 02:46:11;;;;;;;8.65;7.10;;;15.20;99.90;;;;;;5000304;28;89350;-33
2023/08/14 02:48:37;;;;;;;11.25;8.48;;;15.20;99.90;;;;;;4998279;28;90648;-33
2023/08/14 02:51:03;;;;;;;10.02;7.28;;;15.20;99.90;;;;;;5000256;28;89241;-35
2023/08/14 02:53:29;;;;;;;10.50;8.15;;;15.20;99.90;;;;;;4998925;28;87639;-35
2023/08/14 02:55:56;;;;;;;9.75;8.73;;;15.20;99.90;;;;;;4999755;28;90382;-32
2023/08/14 02:58:21;;;;;;;11.65;8.45;;;15.10;99.90;;;;;;4999734;28;89656;-32
2023/08/14 03:00:48;;;;;;;9.02;8.00;;;15.10;99.90;;;;;;5000953;28;89778;-33
2023/08/14 03:03:14;;;;;;;9.23;8.32;;;15.10;99.90;;;;;;4991124;28;90046;-30
2023/08/14 03:05:40;;;;;;;10.73;8.75;;;15.10;99.90;;;;;;4997783;28;89616;-35
2023/08/14 03:08:06;;;;;;;11.18;9.02;;;15.10;99.90;;;;;;5000194;28;89944;-33
2023/08/14 03:10:32;;;;;;;9.25;8.35;;;15.10;99.90;;;;;;4999860;28;90293;-38
2023/08/14 03:12:58;;;;;;;12.27;9.95;;;15.10;99.90;;;;;;5000974;28;89489;-31
2023/08/14 03:15:24;;;;;;;15.18;10.90;;;15.10;99.90;;;;;;4982707;28;90322;-34
2023/08/14 03:17:50;;;;;;;11.25;10.15;;;15.10;99.90;;;;;;4980703;28;90076;-33
2023/08/14 03:20:15;;;;;;;14.55;10.82;;;15.00;99.90;;;;;;4996483;28;90483;-31
2023/08/14 03:22:41;;;;;;;13.05;10.93;;;15.10;99.90;;;;;;4999838;28;90554;-32
2023/08/14 03:25:07;;;;;;;16.13;10.75;;;15.00;99.90;;;;;;4999176;28;89664;-33
2023/08/14 03:27:33;;;;;;;14.35;12.20;;;15.00;99.90;;;;;;4999661;28;89341;-34
2023/08/14 03:29:58;;;;;;;14.75;12.93;;;15.00;99.90;;;;;;4999728;28;90130;-32
2023/08/14 03:32:24;;;;;;;12.55;11.15;;;15.00;99.90;;;;;;4998649;28;89101;-31
2023/08/14 03:34:50;;;;;;;14.80;11.60;;;15.00;99.90;;;;;;4999040;28;90208;-39
2023/08/14 03:37:16;;;;;;;13.70;12.40;;;15.10;99.90;;;;;;4980084;28;90422;-35
2023/08/14 03:39:42;;;;;;;17.25;12.05;;;15.00;99.90;;;;;;4992232;28;89829;-31
2023/08/14 03:42:07;;;;;;;14.10;11.73;;;15.00;99.90;;;;;;4993907;28;89302;-37
2023/08/14 03:44:33;;;;;;;14.77;11.90;;;15.10;99.90;;;;;;4990102;28;89453;-33
2023/08/14 03:46:58;;;;;;;13.68;11.65;;;15.10;99.90;;;;;;4987143;28;89140;-32
2023/08/14 03:49:24;;;;;;;24.30;12.73;;;15.10;99.90;;;;;;4991009;28;90142;-31
2023/08/14 03:51:50;;;;;;;11.40;10.40;;;15.10;99.90;;;;;;4986678;28;90136;-38
2023/08/14 03:54:15;;;;;;;11.68;10.52;;;15.10;99.90;;;;;;4992331;28;90281;-32
2023/08/14 03:56:41;;;;;;;12.45;10.52;;;15.10;99.90;;;;;;4986566;28;89820;-35
2023/08/14 03:59:07;;;;;;;13.10;10.27;;;15.10;99.90;;;;;;4999031;28;90784;-32
2023/08/14 04:01:34;;;;;;;13.80;11.70;;;15.10;99.90;;;;;;4991796;28;88565;-32
2023/08/14 04:03:59;;;;;;;15.95;11.98;;;15.10;99.90;;;;;;4985869;28;90171;-38
2023/08/14 04:06:25;;;;;;;9.50;8.55;;;15.10;99.90;;;;;;4982714;28;90122;-35
2023/08/14 04:08:52;;;;;;;13.45;10.43;;;15.10;99.90;;;;;;4985467;28;89658;-32
2023/08/14 04:11:19;;;;;;;13.23;10.63;;;15.10;99.90;;;;;;4992285;28;88968;-38
2023/08/14 04:13:44;;;;;;;12.25;10.95;;;15.10;99.90;;;;;;4984449;28;89529;-33
2023/08/14 04:16:10;;;;;;;19.55;13.40;;;15.10;99.90;;;;;;4982511;28;89079;-32
2023/08/14 04:18:36;;;;;;;16.73;11.57;;;15.00;99.90;;;;;;4989689;28;89799;-33
2023/08/14 04:21:03;;;;;;;14.88;12.02;;;15.00;99.90;;;;;;4989542;28;90265;-34
2023/08/14 04:23:30;;;;;;;12.73;11.43;;;15.00;99.90;;;;;;4984757;28;90150;-35
2023/08/14 04:25:56;;;;;;;13.32;11.35;;;15.00;99.90;;;;;;4983666;28;90978;-32
2023/08/14 04:28:22;;;;;;;12.68;11.32;;;15.00;99.90;;;;;;4984737;28;91261;-33
2023/08/14 04:30:48;;;;;;;23.83;13.63;;;15.10;99.90;;;;;;4983997;28;88906;-34
2023/08/14 04:33:14;;;;;;;19.55;12.02;;;15.10;99.90;;;;;;4984660;28;90230;-35
2023/08/14 04:35:40;;;;;;;14.13;11.13;;;15.10;99.90;;;;;;4983584;28;89184;-34
2023/08/14 04:38:05;;;;;;;20.20;12.38;;;15.10;99.90;;;;;;4993681;28;89889;-32
2023/08/14 04:40:31;;;;;;;13.90;11.07;;;15.10;99.90;;;;;;4998174;28;90028;-32
2023/08/14 04:42:57;;;;;;;14.77;12.77;;;15.10;99.90;;;;;;4980720;28;91529;-38
2023/08/14 04:45:22;;;;;;;15.35;12.43;;;15.20;99.90;;;;;;4998405;28;89698;-33
2023/08/14 04:47:48;;;;;;;22.92;10.80;;;15.20;99.90;;;;;;4980596;28;89992;-31
2023/08/14 04:50:14;;;;;;;12.80;10.70;;;15.30;99.90;;;;;;4997836;28;90786;-31
2023/08/14 04:52:39;;;;;;;14.65;11.00;;;15.30;99.90;;;;;;4997862;28;90115;-32
2023/08/14 04:55:06;;;;;;;16.08;11.75;;;15.40;99.90;;;;;;4997725;28;90239;-39
2023/08/14 04:57:32;;;;;;;12.05;10.10;;;15.40;99.90;;;;;;4997928;28;90024;-32
2023/08/14 04:59:58;;;;;;;13.20;11.23;;;15.40;99.90;;;;;;4997853;28;88198;-33
2023/08/14 05:02:23;;;;;;;13.20;11.85;;;15.40;99.90;;;;;;4998698;28;89831;-36
2023/08/14 05:04:49;;;;;;;15.02;13.45;;;15.60;99.90;;;;;;4989021;28;91418;-37
2023/08/14 05:07:15;;;;;;;21.02;12.15;;;15.70;99.90;;;;;;4978527;28;89526;-35
2023/08/14 05:09:40;;;;;;;20.48;12.85;;;15.80;99.90;;;;;;4987965;28;88459;-34
2023/08/14 05:12:06;;;;;;;13.65;11.35;;;15.80;99.90;;;;;;4982435;28;89326;-33
2023/08/14 05:14:32;;;;;;;17.02;12.68;;;15.80;99.90;;;;;;4978901;28;91935;-33
2023/08/14 05:16:57;;;;;;;12.95;11.50;;;15.80;99.90;;;;;;4982123;28;91350;-33
2023/08/14 05:19:23;;;;;;;14.48;10.52;;;15.90;99.90;;;;;;4983631;28;89868;-33
2023/08/14 05:21:49;;;;;;;15.13;9.75;;;15.90;99.90;;;;;;4985958;28;90280;-35
2023/08/14 05:24:15;;;;;;;11.70;10.50;;;16.00;99.90;;;;;;4982882;28;90101;-33
2023/08/14 05:26:41;;;;;;;16.55;10.68;;;16.10;99.90;;;;;;4987320;28;89966;-36
2023/08/14 05:29:07;;;;;;;13.57;10.68;;;16.20;99.90;;;;;;4982671;28;89470;-38
2023/08/14 05:31:33;;;;;;;13.10;10.32;;;16.40;99.90;;;;;;4988224;28;90117;-35
2023/08/14 05:33:58;;;;;;;17.08;10.68;;;16.40;99.90;;;;;;4982570;28;90083;-32
2023/08/14 05:36:24;;;;;;;11.48;10.38;;;16.60;99.90;;;;;;4981787;28;90413;-38
2023/08/14 05:38:49;;;;;;;13.05;11.23;;;16.70;99.90;;;;;;4989134;28;89667;-32
2023/08/14 05:41:16;;;;;;;17.88;10.85;;;16.80;99.90;;;;;;4975987;28;89769;-31
2023/08/14 05:43:41;;;;;;;11.52;10.00;;;17.00;99.90;;;;;;4980870;28;88459;-33
2023/08/14 05:46:07;;;;;;;11.45;10.20;;;17.10;99.90;;;;;;4995420;28;90740;-37
2023/08/14 05:48:33;;;;;;;13.25;9.77;;;17.20;99.90;;;;;;4976718;28;88762;-36
2023/08/14 05:50:58;;;;;;;15.93;10.88;;;17.30;99.90;;;;;;4977148;28;90887;-34
2023/08/14 05:53:24;;;;;;;12.13;10.05;;;17.50;99.90;;;;;;4975432;28;89797;-32
2023/08/14 05:55:50;;;;;;;11.52;10.02;;;17.50;99.90;;;;;;4976991;28;90169;-35
2023/08/14 05:58:15;;;;;;;11.13;9.85;;;17.50;99.90;;;;;;4975286;28;87899;-34
2023/08/14 06:00:41;;;;;;;13.23;9.13;;;17.60;99.90;;;;;;4978576;28;90495;-32
2023/08/14 06:03:10;;;;;;;8.55;7.65;;;17.60;99.90;;;;;;4986959;28;90749;-32
2023/08/14 06:05:35;;;;;;;11.60;7.95;;;17.60;99.90;;;;;;4976187;28;90395;-33
2023/08/14 06:08:02;;;;;;;13.52;8.13;;;17.60;99.90;;;;;;4976309;28;89737;-38
2023/08/14 06:10:28;;;;;;;9.98;8.55;;;17.70;99.90;;;;;;4990032;28;89840;-32
2023/08/14 06:12:53;;;;;;;10.48;8.20;;;17.70;99.90;;;;;;4976229;28;90300;-36
2023/08/14 06:15:20;;;;;;;10.45;7.10;;;17.80;99.90;;;;;;4988983;28;89624;-33
2023/08/14 06:17:46;;;;;;;8.43;7.50;;;17.80;99.90;;;;;;4985962;28;87878;-32
2023/08/14 06:20:12;;;;;;;9.50;6.32;;;17.90;99.90;;;;;;4979074;28;90328;-34
2023/08/14 06:22:43;;;;;;;13.52;8.07;;;18.00;99.90;;;;;;4976918;28;89884;-33
2023/08/14 06:25:09;;;;;;;10.07;8.10;;;18.10;99.90;;;;;;4974480;28;89961;-36
2023/08/14 06:27:35;;;;;;;8.27;6.40;;;18.10;99.90;;;;;;4995752;28;89758;-34
2023/08/14 06:30:01;;;;;;;8.27;7.00;;;18.10;99.90;;;;;;4994910;28;91111;-35
2023/08/14 06:32:27;;;;;;;13.88;7.50;;;18.20;99.90;;;;;;4995334;28;89044;-34
2023/08/14 06:34:53;;;;;;;10.73;6.75;;;18.20;99.90;;;;;;4994233;28;89665;-34
2023/08/14 06:37:18;;;;;;;6.55;5.78;;;18.20;99.90;;;;;;4995680;28;89086;-32
2023/08/14 06:39:44;;;;;;;7.32;5.82;;;18.20;99.90;;;;;;4995546;28;90162;-34
2023/08/14 06:42:09;;;;;;;6.57;5.90;;;18.20;99.90;;;;;;4995084;28;89833;-33
2023/08/14 06:44:35;;;;;;;8.95;6.03;;;18.30;99.90;;;;;;4996201;28;89417;-34
2023/08/14 06:47:01;;;;;;;8.88;6.38;;;18.30;99.90;;;;;;4994757;28;88339;-35
2023/08/14 06:49:27;;;;;;;6.82;6.13;;;18.30;99.90;;;;;;4995232;28;90530;-35
2023/08/14 06:51:53;;;;;;;9.73;6.60;;;18.40;99.90;;;;;;4993891;28;90129;-37
2023/08/14 06:54:19;;;;;;;9.00;5.88;;;18.40;99.90;;;;;;4995395;28;89034;-32
2023/08/14 06:56:45;;;;;;;9.10;5.47;;;18.40;99.90;;;;;;4983498;28;90816;-32
2023/08/14 06:59:10;;;;;;;6.97;5.10;;;18.50;99.90;;;;;;4994079;28;90230;-34
2023/08/14 07:01:36;;;;;;;6.85;5.65;;;18.50;99.90;;;;;;4989937;28;89645;-33
2023/08/14 07:04:02;;;;;;;7.22;5.43;;;18.50;99.90;;;;;;4995150;28;89030;-32
2023/08/14 07:06:28;;;;;;;6.97;5.63;;;18.50;99.90;;;;;;4995226;28;88395;-37
2023/08/14 07:08:53;;;;;;;10.98;5.38;;;18.60;99.90;;;;;;4995506;28;90366;-32
2023/08/14 07:11:19;;;;;;;7.85;6.45;;;18.70;99.90;;;;;;4994184;28;90073;-33
2023/08/14 07:13:45;;;;;;;6.32;5.32;;;18.70;99.90;;;;;;4995027;28;89508;-37
2023/08/14 07:16:10;;;;;;;6.45;5.40;;;18.80;99.90;;;;;;4994161;28;90037;-36
2023/08/14 07:18:36;;;;;;;6.28;4.85;;;18.80;99.90;;;;;;4998855;28;89941;-33
2023/08/14 07:21:02;;;;;;;5.93;5.20;;;18.90;99.90;;;;;;4998116;28;91599;-32
2023/08/14 07:23:27;;;;;;;6.03;5.43;;;18.90;99.90;;;;;;4998341;28;89800;-34
2023/08/14 07:25:57;;;;;;;5.95;5.05;;;18.90;99.90;;;;;;5009258;28;88277;-34
2023/08/14 07:28:23;;;;;;;10.48;6.75;;;19.00;99.90;;;;;;4998960;28;90178;-32
2023/08/14 07:30:49;;;;;;;8.00;6.85;;;19.10;99.90;;;;;;4998190;28;89571;-35
2023/08/14 07:33:15;;;;;;;7.38;5.03;;;19.20;99.90;;;;;;4999322;28;90218;-35
2023/08/14 07:35:41;;;;;;;8.45;6.85;;;19.20;99.90;;;;;;4997997;28;88591;-33
2023/08/14 07:38:07;;;;;;;10.77;5.20;;;19.20;99.90;;;;;;4998172;28;90444;-35
2023/08/14 07:40:33;;;;;;;6.32;5.15;;;19.30;99.90;;;;;;4997474;28;90611;-36
2023/08/14 07:42:59;;;;;;;7.00;4.07;;;19.40;99.90;;;;;;4983480;28;90172;-36
2023/08/14 07:45:24;;;;;;;6.57;3.88;;;19.40;99.90;;;;;;4998278;28;87978;-35
2023/08/14 07:47:50;;;;;;;6.00;3.72;;;19.60;99.90;;;;;;4998049;28;91827;-35
2023/08/14 07:50:16;;;;;;;5.93;3.75;;;19.80;99.90;;;;;;4997186;28;90217;-33
2023/08/14 07:52:41;;;;;;;4.10;3.47;;;20.30;99.90;;;;;;4998117;28;90171;-32
2023/08/14 07:55:07;;;;;;;3.40;3.10;;;20.70;99.90;;;;;;4997631;28;88584;-37
2023/08/14 07:57:33;;;;;;;6.45;3.83;;;21.20;99.90;;;;;;4998108;28;90370;-34
2023/08/14 07:59:58;;;;;;;9.85;3.95;;;21.70;99.90;;;;;;4994224;28;88963;-32
2023/08/14 08:02:24;;;;;;;6.15;3.83;;;22.00;99.90;;;;;;4993535;28;89289;-38
2023/08/14 08:04:50;;;;;;;3.13;2.83;;;22.00;99.90;;;;;;4987690;28;89988;-35
2023/08/14 08:07:16;;;;;;;6.78;3.65;;;22.00;99.90;;;;;;4980060;28;90233;-36
2023/08/14 08:09:41;;;;;;;4.80;3.55;;;22.10;99.90;;;;;;4997552;28;89940;-37
2023/08/14 08:12:07;;;;;;;9.32;3.47;;;22.10;99.90;;;;;;4997646;28;89400;-37
2023/08/14 08:14:34;;;;;;;4.07;3.20;;;22.00;99.90;;;;;;4998021;28;88951;-36
2023/08/14 08:17:00;;;;;;;5.47;3.60;;;22.30;99.90;;;;;;4997124;28;90328;-33
2023/08/14 08:19:25;;;;;;;7.72;2.85;;;22.60;99.90;;;;;;5031267;22;90210;-35
2023/08/14 08:21:51;;;;;;;4.55;3.03;;;22.80;99.90;;;;;;4997627;28;90158;-35
2023/08/14 08:24:17;;;;;;;3.60;2.33;;;23.00;99.90;;;;;;4997530;28;90128;-36
2023/08/14 08:26:43;;;;;;;3.72;2.65;;;23.20;99.90;;;;;;4997048;28;90268;-39
2023/08/14 08:29:08;;;;;;;6.05;2.80;;;23.50;99.90;;;;;;4995114;28;91132;-33
2023/08/14 08:31:34;;;;;;;7.00;3.13;;;23.60;99.90;;;;;;4996030;28;91186;-34
2023/08/14 08:34:00;;;;;;;3.05;2.67;;;23.80;99.90;;;;;;4998446;28;89148;-33
2023/08/14 08:36:25;;;;;;;3.50;3.20;;;24.00;99.90;;;;;;4996390;28;89326;-32
2023/08/14 08:38:51;;;;;;;7.03;3.17;;;24.00;99.90;;;;;;4996806;28;90020;-36
2023/08/14 08:41:24;;;;;;;4.68;2.13;;;24.10;99.90;;;;;;4985106;28;88913;-36
2023/08/14 08:44:02;;;;;;;3.35;2.55;;;24.30;99.90;;;;;;4977443;28;89293;-33
2023/08/14 08:46:30;;;;;;;7.60;2.72;;;24.40;99.90;;;;;;4977689;28;91702;-32
2023/08/14 08:48:56;;;;;;;3.47;2.33;;;24.50;99.90;;;;;;4977394;28;89681;-33
2023/08/14 08:51:23;;;;;;;2.67;2.35;;;24.10;99.90;;;;;;4977143;28;90107;-34
2023/08/14 08:53:49;;;;;;;2.97;2.22;;;24.30;99.90;;;;;;4959209;28;89403;-34
2023/08/14 08:56:15;;;;;;;3.97;1.90;;;24.50;99.90;;;;;;4977568;28;89955;-32
2023/08/14 08:58:41;;;;;;;4.32;2.58;;;24.60;99.90;;;;;;4977459;28;89693;-37
2023/08/14 09:01:07;;;;;;;3.22;2.25;;;24.50;99.90;;;;;;4982930;28;90500;-38
2023/08/14 09:03:33;;;;;;;3.47;2.45;;;24.50;99.90;;;;;;4996539;28;89376;-36
2023/08/14 09:05:59;;;;;;;3.58;2.63;;;24.70;99.90;;;;;;4996652;28;90184;-34
2023/08/14 09:08:25;;;;;;;11.48;2.58;;;24.90;99.90;;;;;;4996718;28;89749;-34
2023/08/14 09:10:50;;;;;;;2.17;2.08;;;24.70;99.90;;;;;;4977437;28;89762;-37
2023/08/14 09:13:16;;;;;;;2.42;2.20;;;25.00;99.90;;;;;;4990302;28;88549;-32
2023/08/14 09:15:44;;;;;;;4.00;2.42;;;25.20;99.90;;;;;;4995657;28;90344;-32
2023/08/14 09:18:10;;;;;;;2.75;2.25;;;25.00;99.90;;;;;;4977579;28;90563;-33
2023/08/14 09:20:38;;;;;;;5.85;2.75;;;25.20;99.90;;;;;;4983561;28;90152;-35
2023/08/14 09:23:04;;;;;;;4.55;2.78;;;24.70;99.90;;;;;;4996101;28;90411;-33
2023/08/14 09:25:30;;;;;;;3.83;2.45;;;24.80;99.90;;;;;;4996155;28;89593;-37
2023/08/14 09:27:57;;;;;;;3.80;2.75;;;24.70;99.90;;;;;;4978524;28;89672;-34
2023/08/14 09:30:28;;;;;;;2.97;2.20;;;25.00;99.90;;;;;;4995787;28;91296;-34
2023/08/14 09:32:55;;;;;;;5.93;2.83;;;25.10;99.90;;;;;;4996770;28;90356;-32
2023/08/14 09:35:21;;;;;;;7.20;3.20;;;25.00;99.90;;;;;;4969337;28;90628;-33
2023/08/14 09:37:49;;;;;;;6.40;3.13;;;25.00;99.90;;;;;;4986595;28;90047;-33
2023/08/14 09:40:17;;;;;;;4.32;2.72;;;25.20;99.90;;;;;;4995491;28;88907;-35
2023/08/14 09:42:44;;;;;;;3.13;2.83;;;25.30;99.90;;;;;;4996208;28;90299;-32
2023/08/14 09:45:15;;;;;;;4.80;3.22;;;25.30;99.90;;;;;;4991205;28;91286;-35
2023/08/14 09:47:42;;;;;;;2.53;2.42;;;25.40;99.90;;;;;;4988645;28;89936;-35
2023/08/14 09:50:09;;;;;;;4.57;2.63;;;25.10;99.90;;;;;;4995368;28;88970;-32
2023/08/14 09:52:35;;;;;;;4.93;3.35;;;25.30;99.90;;;;;;4997227;28;89510;-34
2023/08/14 09:55:02;;;;;;;4.38;2.90;;;25.40;99.90;;;;;;4996064;28;90200;-32
2023/08/14 09:57:27;;;;;;;3.33;3.10;;;25.20;99.90;;;;;;4995820;28;90298;-34
2023/08/14 09:59:53;;;;;;;8.65;3.40;;;25.20;99.90;;;;;;4976866;28;90534;-34
2023/08/14 10:02:23;;;;;;;3.92;2.58;;;25.20;99.90;;;;;;4988852;28;89169;-35
2023/08/14 10:04:49;;;;;;;3.80;2.40;;;25.10;99.90;;;;;;4976273;28;89610;-36
2023/08/14 10:07:17;;;;;;;4.25;3.05;;;25.20;99.90;;;;;;4976765;28;90447;-33
2023/08/14 10:09:49;;;;;;;;;;;25.30;99.90;;;;;;4986500;28;90152;-33
2023/08/14 10:12:17;;;;;;;4.18;2.47;;;25.60;99.90;;;;;;4980763;28;88684;-36
2023/08/14 10:14:47;;;;;;;;;;;25.40;99.90;;;;;;4977634;28;88664;-37
2023/08/14 10:17:19;;;;;;;3.90;1.80;;;25.40;99.90;;;;;;4982405;28;89596;-35
2023/08/14 10:19:50;;;;;;;2.90;2.15;;;25.30;99.90;;;;;;4983003;28;88552;-30
2023/08/14 10:22:16;;;;;;;3.63;2.00;;;25.10;99.90;;;;;;4983566;28;88917;-31
2023/08/14 10:24:43;;;;;;;2.97;2.03;;;25.00;99.90;;;;;;4995978;28;90427;-33
2023/08/14 10:27:08;;;;;;;3.55;2.65;;;24.90;97.50;;;;;;4976492;28;89883;-32
2023/08/14 10:29:35;;;;;;;3.78;2.53;;;25.00;99.90;;;;;;4976587;28;89708;-31
2023/08/14 10:32:02;;;;;;;3.90;2.08;;;24.80;99.90;;;;;;4984691;28;88539;-37
2023/08/14 10:34:30;;;;;;;3.77;2.23;;;25.10;99.90;;;;;;4981916;28;90204;-31
2023/08/14 10:36:56;;;;;;;4.18;2.08;;;25.30;99.90;;;;;;4979782;28;89411;-34
2023/08/14 10:39:35;;;;;;;2.28;1.42;;;25.30;99.90;;;;;;4995089;28;89740;-39
2023/08/14 10:42:05;;;;;;;3.17;2.22;;;25.50;99.90;;;;;;4990801;28;89376;-35
2023/08/14 10:44:43;;;;;;;2.60;1.90;;;25.40;98.30;;;;;;4987408;28;89667;-34
2023/08/14 10:47:11;;;;;;;3.63;1.83;;;25.10;84.80;;;;;;4983168;28;89788;-36
2023/08/14 10:49:44;;;;;;;2.63;1.70;;;25.30;98.70;;;;;;4995223;28;90291;-37
2023/08/14 10:52:19;;;;;;;3.35;2.08;;;25.10;95.30;;;;;;4997046;28;88694;-36
2023/08/14 10:54:50;;;;;;;2.78;1.88;;;25.00;99.90;;;;;;4998636;28;90167;-35
2023/08/14 10:57:16;;;;;;;5.43;1.95;;;25.10;99.00;;;;;;4998435;28;89985;-35
2023/08/14 10:59:41;;;;;;;2.22;2.03;;;24.90;93.70;;;;;;4998114;28;91221;-33
2023/08/14 11:02:10;;;;;;;3.17;1.85;;;25.00;99.90;;;;;;4999150;28;89417;-37
2023/08/14 11:04:59;;;;;;;3.83;1.90;;;24.80;99.90;;;;;;4996205;28;90148;-31
2023/08/14 11:07:33;;;;;;;2.03;1.85;;;25.00;99.90;;;;;;4992534;28;89512;-37
2023/08/14 11:10:02;;;;;;;2.28;1.88;;;24.90;99.90;;;;;;4999118;28;88452;-33
2023/08/14 11:12:27;;;;;;;3.13;1.83;;;25.00;99.90;;;;;;4993772;28;90071;-33
2023/08/14 11:14:56;;;;;;;6.00;2.20;;;25.10;99.90;;;;;;4995665;28;90610;-37
2023/08/14 11:17:24;;;;;;;4.82;1.80;;;25.00;99.90;;;;;;4991744;28;89483;-33
2023/08/14 11:19:49;;;;;;;5.32;2.67;;;25.10;99.90;;;;;;4997436;28;89371;-34
2023/08/14 11:22:15;;;;;;;4.10;2.47;;;25.30;99.90;;;;;;4991790;28;89404;-36
2023/08/14 11:24:41;;;;;;;3.40;2.58;;;25.00;99.90;;;;;;4995432;28;90819;-33
2023/08/14 11:27:07;;;;;;;4.80;2.15;;;25.10;99.90;;;;;;4993009;28;89096;-33
2023/08/14 11:29:35;;;;;;;4.28;2.40;;;24.70;99.90;;;;;;4994339;28;89902;-34
2023/08/14 11:32:01;;;;;;;2.67;2.00;;;24.40;99.90;;;;;;4995393;28;88906;-32
2023/08/14 11:34:26;;;;;;;4.88;2.60;;;24.30;99.90;;;;;;4996516;28;90629;-34
2023/08/14 11:37:02;;;;;;;5.20;2.65;;;24.60;99.90;;;;;;4993235;28;89863;-36
2023/08/14 11:39:28;;;;;;;2.83;2.33;;;24.70;99.90;;;;;;4998321;28;89581;-33
2023/08/14 11:41:53;;;;;;;3.78;2.35;;;24.70;99.90;;;;;;4994285;28;89446;-32
2023/08/14 11:44:19;;;;;;;5.80;2.30;;;24.50;99.90;;;;;;4978243;28;90516;-38
2023/08/14 11:46:47;;;;;;;4.45;2.47;;;24.80;99.90;;;;;;4994865;28;90363;-34
2023/08/14 11:49:14;;;;;;;3.67;2.40;;;24.80;99.90;;;;;;4997174;28;90606;-34
2023/08/14 11:51:41;;;;;;;7.20;2.70;;;25.10;99.90;;;;;;4996423;28;89728;-37
2023/08/14 11:54:10;;;;;;;2.83;2.03;;;25.00;99.90;;;;;;4997207;28;89169;-34
2023/08/14 11:56:37;;;;;;;4.45;2.58;;;25.10;99.90;;;;;;4996645;28;89246;-37
2023/08/14 11:59:04;;;;;;;2.88;2.67;;;25.10;99.90;;;;;;4996900;28;90400;-37
2023/08/14 12:01:33;;;;;;;5.78;2.35;;;25.00;99.90;;;;;;4996948;28;89853;-31
2023/08/14 12:03:59;;;;;;;3.85;2.28;;;24.90;99.90;;;;;;4990878;28;91320;-33
2023/08/14 12:06:25;;;;;;;5.05;2.28;;;24.90;99.90;;;;;;4992550;28;89960;-35
2023/08/14 12:08:51;;;;;;;5.43;3.03;;;24.90;99.90;;;;;;4990584;28;89773;-36
2023/08/14 12:11:17;;;;;;;3.63;2.65;;;25.10;99.90;;;;;;4992034;28;90359;-34
2023/08/14 12:13:52;;;;;;;2.95;2.38;;;25.10;99.90;;;;;;4990538;28;90493;-33
2023/08/14 12:16:23;;;;;;;6.80;3.00;;;25.00;99.90;;;;;;4989428;28;89174;-36
2023/08/14 12:18:49;;;;;;;6.50;3.22;;;25.10;99.90;;;;;;4984624;28;89309;-30
2023/08/14 12:21:15;;;;;;;3.60;3.13;;;25.00;99.90;;;;;;4988543;28;90126;-32
2023/08/14 12:23:47;;;;;;;5.53;2.75;;;24.80;99.90;;;;;;4985501;28;90083;-34
2023/08/14 12:26:13;;;;;;;5.00;2.92;;;24.90;99.90;;;;;;4986714;28;90551;-33
2023/08/14 12:28:40;;;;;;;3.67;2.95;;;25.10;99.90;;;;;;4968182;28;90067;-32
2023/08/14 12:31:06;;;;;;;3.63;3.33;;;25.10;99.90;;;;;;4986054;28;88581;-34
2023/08/14 12:33:32;;;;;;;4.28;2.95;;;24.90;99.90;;;;;;4987088;28;89955;-32
2023/08/14 12:35:57;;;;;;;3.47;2.45;;;24.90;99.90;;;;;;4985351;28;90764;-36
2023/08/14 12:38:23;;;;;;;2.75;2.55;;;24.90;99.90;;;;;;4993871;28;89890;-33